Time;durP1;ratioP1;P1;durP2;ratioP2;P2;SDS_P1;SDS_P2;PMS_P1;PMS_P2;Temp;Humidity;BMP_temperature;BMP_pressure;BME280_temperature;BME280_humidity;BME280_pressure;Samples;Min_cycle;Max_cycle;Signal;HPM_P1;HPM_P2
2023/05/29 00:01:24;;;;;;;8.63;3.70;;;;;;;;;;5102575;28;20553;-62
2023/05/29 00:03:51;;;;;;;10.40;3.53;;;;;;;;;;5100182;28;21039;-60
2023/05/29 00:06:17;;;;;;;6.83;3.30;;;;;;;;;;5103608;28;20463;-62
2023/05/29 00:08:52;;;;;;;9.40;3.50;;;;;;;;;;5103439;28;20528;-62
2023/05/29 00:11:19;;;;;;;11.00;3.20;;;;;;;;;;5100288;28;20470;-63
2023/05/29 00:13:45;;;;;;;10.13;3.10;;;;;;;;;;5105881;28;20527;-63
2023/05/29 00:16:12;;;;;;;10.77;3.37;;;;;;;;;;5103916;28;20618;-63
2023/05/29 00:18:45;;;;;;;11.17;3.67;;;;;;;;;;5099308;28;20451;-63
2023/05/29 00:21:11;;;;;;;6.47;3.50;;;;;;;;;;5102985;28;20501;-63
2023/05/29 00:23:37;;;;;;;15.27;4.00;;;;;;;;;;5101276;28;20447;-62
2023/05/29 00:26:05;;;;;;;10.70;3.13;;;;;;;;;;5097878;28;20998;-62
2023/05/29 00:28:32;;;;;;;8.50;3.53;;;;;;;;;;5101401;28;20447;-63
2023/05/29 00:30:58;;;;;;;11.40;2.97;;;;;;;;;;5113797;28;20492;-62
2023/05/29 00:33:25;;;;;;;13.87;3.17;;;;;;;;;;5106022;28;20450;-62
2023/05/29 00:35:51;;;;;;;13.80;3.53;;;;;;;;;;5101714;28;20525;-61
2023/05/29 00:38:17;;;;;;;8.00;3.47;;;;;;;;;;5102817;28;20823;-61
2023/05/29 00:40:44;;;;;;;16.27;3.90;;;;;;;;;;5102329;28;20478;-62
2023/05/29 00:43:11;;;;;;;7.37;2.90;;;;;;;;;;5090834;28;20490;-60
2023/05/29 00:45:38;;;;;;;9.83;3.87;;;;;;;;;;5099963;28;20490;-61
2023/05/29 00:48:05;;;;;;;9.73;3.67;;;;;;;;;;5099806;28;20518;-61
2023/05/29 00:50:31;;;;;;;11.60;4.33;;;;;;;;;;5100401;28;20808;-61
2023/05/29 00:52:58;;;;;;;15.60;3.40;;;;;;;;;;5099889;28;20494;-61
2023/05/29 00:55:24;;;;;;;16.83;4.23;;;;;;;;;;5098625;28;20526;-61
2023/05/29 00:57:51;;;;;;;15.43;3.47;;;;;;;;;;5099929;28;20458;-61
2023/05/29 01:00:20;;;;;;;14.20;4.10;;;;;;;;;;5104532;28;20487;-62
2023/05/29 01:02:46;;;;;;;8.27;3.37;;;;;;;;;;5094877;28;20454;-60
2023/05/29 01:05:13;;;;;;;12.53;4.20;;;;;;;;;;5102159;28;20439;-61
2023/05/29 01:07:39;;;;;;;12.30;4.07;;;;;;;;;;5103419;28;20509;-62
2023/05/29 01:10:07;;;;;;;10.20;3.93;;;;;;;;;;5099893;28;20596;-62
2023/05/29 01:12:37;;;;;;;10.47;3.90;;;;;;;;;;5099064;28;20469;-62
2023/05/29 01:15:22;;;;;;;10.50;3.47;;;;;;;;;;5100676;28;20458;-62
2023/05/29 01:17:59;;;;;;;10.77;3.33;;;;;;;;;;5102820;28;20470;-62
2023/05/29 01:20:30;;;;;;;13.73;3.17;;;;;;;;;;5098934;28;20546;-63
2023/05/29 01:23:09;;;;;;;10.20;2.97;;;;;;;;;;5099491;28;20470;-62
2023/05/29 01:25:43;;;;;;;16.87;3.63;;;;;;;;;;5096520;28;20451;-62
2023/05/29 01:28:12;;;;;;;13.07;3.97;;;;;;;;;;5108959;28;20543;-62
2023/05/29 01:30:39;;;;;;;9.30;3.20;;;;;;;;;;5099328;28;20451;-62
2023/05/29 01:33:06;;;;;;;13.80;3.40;;;;;;;;;;5100034;28;20499;-62
2023/05/29 01:35:32;;;;;;;13.70;3.70;;;;;;;;;;5095043;28;20493;-62
2023/05/29 01:37:59;;;;;;;10.07;3.50;;;;;;;;;;5098249;28;20532;-62
2023/05/29 01:40:25;;;;;;;13.03;3.50;;;;;;;;;;5091592;28;20478;-62
2023/05/29 01:42:52;;;;;;;12.90;3.23;;;;;;;;;;5100258;28;20542;-62
2023/05/29 01:45:19;;;;;;;12.93;3.67;;;;;;;;;;5100313;28;20663;-63
2023/05/29 01:47:46;;;;;;;10.90;4.67;;;;;;;;;;5100156;28;20538;-63
2023/05/29 01:50:14;;;;;;;9.80;3.80;;;;;;;;;;5100582;28;20439;-63
2023/05/29 01:52:40;;;;;;;11.70;3.70;;;;;;;;;;5100568;28;20494;-62
2023/05/29 01:55:07;;;;;;;15.70;4.00;;;;;;;;;;5109672;28;20630;-63
2023/05/29 01:57:34;;;;;;;6.90;3.40;;;;;;;;;;5104498;28;20560;-62
2023/05/29 02:00:00;;;;;;;13.90;5.43;;;;;;;;;;5105485;28;20562;-62
2023/05/29 02:02:28;;;;;;;18.30;4.30;;;;;;;;;;5104357;28;20506;-62
2023/05/29 02:04:54;;;;;;;10.70;2.80;;;;;;;;;;5110714;28;20482;-63
2023/05/29 02:07:21;;;;;;;17.53;3.10;;;;;;;;;;5108629;28;20513;-62
2023/05/29 02:09:47;;;;;;;10.30;3.13;;;;;;;;;;5104124;28;20482;-62
2023/05/29 02:12:13;;;;;;;8.83;2.93;;;;;;;;;;5103542;28;20479;-62
2023/05/29 02:14:41;;;;;;;12.10;3.70;;;;;;;;;;5111134;28;20515;-62
2023/05/29 02:17:09;;;;;;;11.80;4.10;;;;;;;;;;5101706;28;20906;-62
2023/05/29 02:19:37;;;;;;;5.13;2.77;;;;;;;;;;5103796;28;20499;-62
2023/05/29 02:22:03;;;;;;;6.03;2.33;;;;;;;;;;5105255;28;20458;-62
2023/05/29 02:24:29;;;;;;;13.03;3.90;;;;;;;;;;5104916;28;20453;-62
2023/05/29 02:26:56;;;;;;;7.60;3.03;;;;;;;;;;5103532;28;20447;-62
2023/05/29 02:29:22;;;;;;;19.90;4.13;;;;;;;;;;5106006;28;20892;-62
2023/05/29 02:31:48;;;;;;;13.37;3.60;;;;;;;;;;5107290;28;20499;-62
2023/05/29 02:34:15;;;;;;;8.73;3.30;;;;;;;;;;5105041;28;20545;-62
2023/05/29 02:36:42;;;;;;;13.77;3.17;;;;;;;;;;5098428;28;20478;-62
2023/05/29 02:39:10;;;;;;;9.80;4.07;;;;;;;;;;5102465;28;20906;-61
2023/05/29 02:41:36;;;;;;;14.60;3.97;;;;;;;;;;5107024;28;21002;-61
2023/05/29 02:44:02;;;;;;;7.53;3.00;;;;;;;;;;5104202;28;20450;-62
2023/05/29 02:46:29;;;;;;;9.80;3.00;;;;;;;;;;5103141;28;20954;-62
2023/05/29 02:48:55;;;;;;;11.50;3.00;;;;;;;;;;5103907;28;20522;-62
2023/05/29 02:51:21;;;;;;;9.77;3.47;;;;;;;;;;5101709;28;20459;-60
2023/05/29 02:53:49;;;;;;;8.80;3.37;;;;;;;;;;5110913;28;20443;-62
2023/05/29 02:56:16;;;;;;;17.53;4.20;;;;;;;;;;5102896;28;20932;-62
2023/05/29 02:58:43;;;;;;;13.00;4.27;;;;;;;;;;5101760;28;20454;-61
2023/05/29 03:01:09;;;;;;;9.33;3.10;;;;;;;;;;5105206;28;20465;-62
2023/05/29 03:03:35;;;;;;;13.70;3.13;;;;;;;;;;5105703;28;20447;-61
2023/05/29 03:06:02;;;;;;;13.33;3.57;;;;;;;;;;5102140;28;20954;-61
2023/05/29 03:08:28;;;;;;;15.20;3.70;;;;;;;;;;5102464;28;20466;-61
2023/05/29 03:10:56;;;;;;;8.53;3.40;;;;;;;;;;5111039;28;20513;-61
2023/05/29 03:13:23;;;;;;;10.67;3.23;;;;;;;;;;5101267;28;20455;-60
2023/05/29 03:15:50;;;;;;;14.47;3.30;;;;;;;;;;5101960;28;21011;-60
2023/05/29 03:18:17;;;;;;;8.47;4.07;;;;;;;;;;5104587;28;20536;-60
2023/05/29 03:20:44;;;;;;;8.87;3.37;;;;;;;;;;5103529;28;20872;-60
2023/05/29 03:23:10;;;;;;;12.43;3.43;;;;;;;;;;5101409;28;20481;-60
2023/05/29 03:25:36;;;;;;;11.70;3.50;;;;;;;;;;5112328;28;20471;-59
2023/05/29 03:28:04;;;;;;;13.37;3.53;;;;;;;;;;5105450;28;21061;-60
2023/05/29 03:30:30;;;;;;;14.97;3.70;;;;;;;;;;5102371;28;20467;-61
2023/05/29 03:33:03;;;;;;;6.17;2.87;;;;;;;;;;5104454;28;20534;-61
2023/05/29 03:35:29;;;;;;;10.60;2.83;;;;;;;;;;5104527;28;20451;-61
2023/05/29 03:38:06;;;;;;;15.13;4.50;;;;;;;;;;5103011;28;20554;-61
2023/05/29 03:40:32;;;;;;;12.87;3.33;;;;;;;;;;5102005;28;20561;-62
2023/05/29 03:42:58;;;;;;;7.87;2.73;;;;;;;;;;5111125;28;20468;-62
2023/05/29 03:45:26;;;;;;;9.23;2.70;;;;;;;;;;5101944;28;20533;-62
2023/05/29 03:47:52;;;;;;;7.43;2.63;;;;;;;;;;5105479;28;20895;-62
2023/05/29 03:50:19;;;;;;;8.40;3.30;;;;;;;;;;5101583;28;20775;-62
2023/05/29 03:52:45;;;;;;;10.80;3.10;;;;;;;;;;5100953;28;20655;-62
2023/05/29 03:55:14;;;;;;;12.10;3.90;;;;;;;;;;5107565;28;20481;-62
2023/05/29 03:57:41;;;;;;;10.47;2.73;;;;;;;;;;5104801;28;20494;-62
2023/05/29 04:00:09;;;;;;;10.10;3.40;;;;;;;;;;5101306;28;20455;-62
2023/05/29 04:02:37;;;;;;;10.80;3.10;;;;;;;;;;5107664;28;20483;-61
2023/05/29 04:05:04;;;;;;;9.20;2.80;;;;;;;;;;5104915;28;20481;-63
2023/05/29 04:07:30;;;;;;;14.17;3.60;;;;;;;;;;5101202;28;20538;-64
2023/05/29 04:09:57;;;;;;;15.53;3.23;;;;;;;;;;5097445;28;20496;-62
2023/05/29 04:12:23;;;;;;;10.47;2.70;;;;;;;;;;5104426;28;20493;-62
2023/05/29 04:14:50;;;;;;;11.37;3.60;;;;;;;;;;5101848;28;20474;-62
2023/05/29 04:17:16;;;;;;;6.63;2.40;;;;;;;;;;5104326;28;20554;-63
2023/05/29 04:19:44;;;;;;;7.80;2.40;;;;;;;;;;5104511;28;20533;-60
2023/05/29 04:22:10;;;;;;;12.53;2.73;;;;;;;;;;5100285;28;20489;-62
2023/05/29 04:24:36;;;;;;;8.03;2.87;;;;;;;;;;5100696;28;21088;-62
2023/05/29 04:27:04;;;;;;;12.33;3.20;;;;;;;;;;5100405;28;20560;-63
2023/05/29 04:29:30;;;;;;;12.10;2.90;;;;;;;;;;5100841;28;20530;-63
2023/05/29 04:31:57;;;;;;;13.17;3.20;;;;;;;;;;5104806;28;20475;-62
2023/05/29 04:34:24;;;;;;;14.87;3.17;;;;;;;;;;5101562;28;20959;-63
2023/05/29 04:36:51;;;;;;;8.00;2.33;;;;;;;;;;5097766;28;20493;-62
2023/05/29 04:39:18;;;;;;;14.00;4.40;;;;;;;;;;5101690;28;21037;-62
2023/05/29 04:41:44;;;;;;;10.37;2.70;;;;;;;;;;5102007;28;20543;-62
2023/05/29 04:44:11;;;;;;;9.10;3.20;;;;;;;;;;5102316;28;20486;-63
2023/05/29 04:46:38;;;;;;;13.03;2.57;;;;;;;;;;5102667;28;20455;-63
2023/05/29 04:49:04;;;;;;;8.20;2.80;;;;;;;;;;5101771;28;21118;-61
2023/05/29 04:51:31;;;;;;;11.27;2.47;;;;;;;;;;5103921;28;20510;-62
2023/05/29 04:53:58;;;;;;;9.20;2.33;;;;;;;;;;5104805;28;20989;-61
2023/05/29 04:56:26;;;;;;;10.80;2.60;;;;;;;;;;5102737;28;20566;-62
2023/05/29 04:58:53;;;;;;;14.10;3.07;;;;;;;;;;5101466;28;20454;-62
2023/05/29 05:01:19;;;;;;;10.50;2.57;;;;;;;;;;5101945;28;20467;-62
2023/05/29 05:03:46;;;;;;;8.67;2.30;;;;;;;;;;5100613;28;20789;-62
2023/05/29 05:06:12;;;;;;;8.43;2.07;;;;;;;;;;5093630;28;20489;-62
2023/05/29 05:08:38;;;;;;;10.10;2.80;;;;;;;;;;5105572;28;20514;-63
2023/05/29 05:11:07;;;;;;;8.40;2.80;;;;;;;;;;5099779;28;20461;-62
2023/05/29 05:13:33;;;;;;;6.70;2.60;;;;;;;;;;5099810;28;20446;-62
2023/05/29 05:16:00;;;;;;;8.33;2.30;;;;;;;;;;5100231;28;20450;-64
2023/05/29 05:18:26;;;;;;;9.23;2.50;;;;;;;;;;5099905;28;20520;-66
2023/05/29 05:20:53;;;;;;;7.73;1.80;;;;;;;;;;5099334;28;20975;-62
2023/05/29 05:23:19;;;;;;;13.33;2.97;;;;;;;;;;5093956;28;20490;-65
2023/05/29 05:25:45;;;;;;;8.50;3.07;;;;;;;;;;5101221;28;20750;-66
2023/05/29 05:28:13;;;;;;;7.67;2.60;;;;;;;;;;5106396;28;20511;-63
2023/05/29 05:30:40;;;;;;;10.20;2.87;;;;;;;;;;5104527;28;20443;-65
2023/05/29 05:33:07;;;;;;;8.23;2.57;;;;;;;;;;5104156;28;20451;-64
2023/05/29 05:35:33;;;;;;;8.07;2.90;;;;;;;;;;5102113;28;20484;-62
2023/05/29 05:38:00;;;;;;;12.70;2.80;;;;;;;;;;5106425;28;20596;-66
2023/05/29 05:40:27;;;;;;;13.10;2.30;;;;;;;;;;5104125;28;20447;-64
2023/05/29 05:42:53;;;;;;;12.63;2.93;;;;;;;;;;5097850;28;20486;-63
2023/05/29 05:45:21;;;;;;;5.60;1.83;;;;;;;;;;5104741;28;20514;-64
2023/05/29 05:47:47;;;;;;;6.87;2.50;;;;;;;;;;5102877;28;20907;-63
2023/05/29 05:50:14;;;;;;;7.47;2.63;;;;;;;;;;5112190;28;20486;-63
2023/05/29 05:52:40;;;;;;;7.33;2.57;;;;;;;;;;5104528;28;20491;-63
2023/05/29 05:55:07;;;;;;;7.63;2.53;;;;;;;;;;5100537;28;21167;-64
2023/05/29 05:57:35;;;;;;;9.90;3.27;;;;;;;;;;5107543;28;20602;-66
2023/05/29 06:00:05;;;;;;;7.37;3.00;;;;;;;;;;5113410;28;20454;-63
2023/05/29 06:02:33;;;;;;;12.37;3.10;;;;;;;;;;5105658;28;20447;-66
2023/05/29 06:04:59;;;;;;;8.27;2.60;;;;;;;;;;5110158;28;20538;-63
2023/05/29 06:07:25;;;;;;;9.07;2.20;;;;;;;;;;5110790;28;20466;-65
2023/05/29 06:09:52;;;;;;;10.60;2.77;;;;;;;;;;5104481;28;20451;-64
2023/05/29 06:12:18;;;;;;;11.93;3.60;;;;;;;;;;5101505;28;20505;-64
2023/05/29 06:14:45;;;;;;;14.43;3.30;;;;;;;;;;5105833;28;20506;-64
2023/05/29 06:17:11;;;;;;;7.53;2.40;;;;;;;;;;5103770;28;20475;-62
2023/05/29 06:19:39;;;;;;;7.23;2.80;;;;;;;;;;5104123;28;20480;-62
2023/05/29 06:22:06;;;;;;;12.90;3.30;;;;;;;;;;5101487;28;20467;-61
2023/05/29 06:24:32;;;;;;;10.77;2.90;;;;;;;;;;5102724;28;20466;-62
2023/05/29 06:26:58;;;;;;;11.10;2.47;;;;;;;;;;5111542;28;20454;-62
2023/05/29 06:29:25;;;;;;;13.73;2.80;;;;;;;;;;5105669;28;20514;-62
2023/05/29 06:31:51;;;;;;;10.13;2.63;;;;;;;;;;5102861;28;20647;-62
2023/05/29 06:34:18;;;;;;;5.77;2.33;;;;;;;;;;5106351;28;20485;-61
2023/05/29 06:36:45;;;;;;;7.90;2.23;;;;;;;;;;5105213;28;20968;-61
2023/05/29 06:39:12;;;;;;;8.03;2.80;;;;;;;;;;5106908;28;20604;-62
2023/05/29 06:41:41;;;;;;;15.47;3.03;;;;;;;;;;5101928;28;20854;-62
2023/05/29 06:44:08;;;;;;;9.53;2.17;;;;;;;;;;5107659;28;20450;-62
2023/05/29 06:46:34;;;;;;;17.80;3.60;;;;;;;;;;5102961;28;20455;-62
2023/05/29 06:49:00;;;;;;;7.10;2.50;;;;;;;;;;5103484;28;20494;-61
2023/05/29 06:51:27;;;;;;;16.97;3.40;;;;;;;;;;5102967;28;20538;-61
2023/05/29 06:53:54;;;;;;;7.77;2.20;;;;;;;;;;5105792;28;20439;-61
2023/05/29 06:56:21;;;;;;;7.20;3.03;;;;;;;;;;5101293;28;20495;-61
2023/05/29 06:58:48;;;;;;;4.87;2.90;;;;;;;;;;5096924;28;20482;-62
2023/05/29 07:01:14;;;;;;;7.30;3.17;;;;;;;;;;5103618;28;20570;-62
2023/05/29 07:03:41;;;;;;;10.13;2.60;;;;;;;;;;5103506;28;20443;-61
2023/05/29 07:06:07;;;;;;;7.87;2.43;;;;;;;;;;5102112;28;20447;-62
2023/05/29 07:08:34;;;;;;;9.83;2.63;;;;;;;;;;5101325;28;20451;-60
2023/05/29 07:11:01;;;;;;;6.97;2.67;;;;;;;;;;5102546;28;20467;-61
2023/05/29 07:13:28;;;;;;;10.83;2.47;;;;;;;;;;5106581;28;20482;-61
2023/05/29 07:15:54;;;;;;;8.90;2.57;;;;;;;;;;5102708;28;20486;-61
2023/05/29 07:18:20;;;;;;;8.33;2.93;;;;;;;;;;5105199;28;20590;-59
2023/05/29 07:20:47;;;;;;;7.97;3.13;;;;;;;;;;5107816;28;20592;-59
2023/05/29 07:23:13;;;;;;;7.63;2.43;;;;;;;;;;5096624;28;20544;-60
2023/05/29 07:25:39;;;;;;;7.37;2.67;;;;;;;;;;5106713;28;20470;-59
2023/05/29 07:28:07;;;;;;;10.67;3.03;;;;;;;;;;5103969;28;20473;-58
2023/05/29 07:30:34;;;;;;;6.07;2.50;;;;;;;;;;5104318;28;20482;-58
2023/05/29 07:33:00;;;;;;;8.53;2.33;;;;;;;;;;5101668;28;20479;-58
2023/05/29 07:35:26;;;;;;;7.73;3.00;;;;;;;;;;5106830;28;20479;-59
2023/05/29 07:37:53;;;;;;;7.87;2.00;;;;;;;;;;5107807;28;20525;-59
2023/05/29 07:40:20;;;;;;;11.37;2.93;;;;;;;;;;5104287;28;20452;-61
2023/05/29 07:42:46;;;;;;;6.17;2.53;;;;;;;;;;5110837;28;20952;-60
2023/05/29 07:45:14;;;;;;;7.40;2.77;;;;;;;;;;5109337;28;20457;-59
2023/05/29 07:47:40;;;;;;;10.23;3.10;;;;;;;;;;5100663;28;20478;-59
2023/05/29 07:50:07;;;;;;;7.67;2.70;;;;;;;;;;5101219;28;20542;-60
2023/05/29 07:52:34;;;;;;;18.87;3.63;;;;;;;;;;5100414;28;21065;-61
2023/05/29 07:55:01;;;;;;;7.10;2.90;;;;;;;;;;5100200;28;20506;-60
2023/05/29 07:57:28;;;;;;;8.43;2.50;;;;;;;;;;5101114;28;21005;-62
2023/05/29 07:59:54;;;;;;;9.13;2.40;;;;;;;;;;5100973;28;20494;-61
2023/05/29 08:02:22;;;;;;;5.33;2.67;;;;;;;;;;5103611;28;20477;-62
2023/05/29 08:04:49;;;;;;;10.40;2.97;;;;;;;;;;5094459;28;20519;-62
2023/05/29 08:07:15;;;;;;;6.90;1.97;;;;;;;;;;5101779;28;20505;-62
2023/05/29 08:09:41;;;;;;;8.57;2.60;;;;;;;;;;5108665;28;20461;-61
2023/05/29 08:12:08;;;;;;;7.10;3.00;;;;;;;;;;5104150;28;20526;-61
2023/05/29 08:14:35;;;;;;;9.07;2.30;;;;;;;;;;5102539;28;20526;-61
2023/05/29 08:17:01;;;;;;;7.27;2.87;;;;;;;;;;5109564;28;20875;-61
2023/05/29 08:19:29;;;;;;;10.10;2.93;;;;;;;;;;5101144;28;20531;-62
2023/05/29 08:21:55;;;;;;;9.20;2.90;;;;;;;;;;5100025;28;20458;-62
2023/05/29 08:24:22;;;;;;;14.40;4.67;;;;;;;;;;5105599;28;20471;-61
2023/05/29 08:26:48;;;;;;;13.67;3.40;;;;;;;;;;5102122;28;20538;-61
2023/05/29 08:29:15;;;;;;;12.40;3.53;;;;;;;;;;5110973;28;20514;-62
2023/05/29 08:31:41;;;;;;;6.80;2.60;;;;;;;;;;5104226;28;20481;-63
2023/05/29 08:34:10;;;;;;;8.70;2.67;;;;;;;;;;5101662;28;20451;-62
2023/05/29 08:36:40;;;;;;;6.97;2.07;;;;;;;;;;5100101;28;20485;-63
2023/05/29 08:39:07;;;;;;;6.60;2.40;;;;;;;;;;5100364;28;20608;-61
2023/05/29 08:41:37;;;;;;;6.83;2.50;;;;;;;;;;5102263;28;20446;-61
2023/05/29 08:44:04;;;;;;;10.50;2.60;;;;;;;;;;5096409;28;20547;-62
2023/05/29 08:46:31;;;;;;;7.27;2.60;;;;;;;;;;5108272;28;20477;-61
2023/05/29 08:48:59;;;;;;;9.43;2.60;;;;;;;;;;5103371;28;20522;-60
2023/05/29 08:51:29;;;;;;;6.30;2.50;;;;;;;;;;5100216;28;20519;-63
2023/05/29 08:53:57;;;;;;;7.00;3.20;;;;;;;;;;5101016;28;20523;-62
2023/05/29 08:56:23;;;;;;;11.20;2.67;;;;;;;;;;5099363;28;21078;-62
2023/05/29 08:58:50;;;;;;;10.97;2.60;;;;;;;;;;5100001;28;20482;-61
2023/05/29 09:01:20;;;;;;;11.73;3.23;;;;;;;;;;5100709;28;20459;-62
2023/05/29 09:03:47;;;;;;;10.47;2.40;;;;;;;;;;5105768;28;20462;-63
2023/05/29 09:06:14;;;;;;;10.80;3.00;;;;;;;;;;5107014;28;20454;-62
2023/05/29 09:08:43;;;;;;;7.90;2.90;;;;;;;;;;5098393;28;20839;-63
2023/05/29 09:11:10;;;;;;;5.83;2.83;;;;;;;;;;5099352;28;20485;-62
2023/05/29 09:13:37;;;;;;;5.27;2.37;;;;;;;;;;5105984;28;20484;-60
2023/05/29 09:16:04;;;;;;;9.23;2.57;;;;;;;;;;5103812;28;20454;-62
2023/05/29 09:18:31;;;;;;;9.03;2.67;;;;;;;;;;5103299;28;20547;-62
2023/05/29 09:20:58;;;;;;;6.80;2.37;;;;;;;;;;5099918;28;20467;-63
2023/05/29 09:23:26;;;;;;;9.00;3.40;;;;;;;;;;5099705;28;20512;-61
2023/05/29 09:25:53;;;;;;;8.60;3.30;;;;;;;;;;5100041;28;20439;-63
2023/05/29 09:28:23;;;;;;;9.03;3.43;;;;;;;;;;5101129;28;20455;-62
2023/05/29 09:30:49;;;;;;;6.70;2.70;;;;;;;;;;5105879;28;20877;-61
2023/05/29 09:33:16;;;;;;;11.37;3.30;;;;;;;;;;5102966;28;20609;-62
2023/05/29 09:35:43;;;;;;;8.07;3.27;;;;;;;;;;5100437;28;20806;-60
2023/05/29 09:38:10;;;;;;;10.23;3.20;;;;;;;;;;5101241;28;20536;-61
2023/05/29 09:40:37;;;;;;;9.57;2.93;;;;;;;;;;5103132;28;20482;-62
2023/05/29 09:43:07;;;;;;;6.90;2.40;;;;;;;;;;5097546;28;20673;-61
2023/05/29 09:45:36;;;;;;;8.73;2.60;;;;;;;;;;5100199;28;20478;-61
2023/05/29 09:48:03;;;;;;;10.10;2.47;;;;;;;;;;5088293;28;20565;-61
2023/05/29 09:50:30;;;;;;;5.77;1.93;;;;;;;;;;5086380;28;20465;-62
2023/05/29 09:52:58;;;;;;;7.27;2.97;;;;;;;;;;5091750;28;20477;-61
2023/05/29 09:55:25;;;;;;;9.87;3.03;;;;;;;;;;5098457;28;20755;-62
2023/05/29 09:57:53;;;;;;;5.87;2.47;;;;;;;;;;5099438;28;20483;-62
2023/05/29 10:00:21;;;;;;;7.13;2.50;;;;;;;;;;5099072;28;20541;-62
2023/05/29 10:02:50;;;;;;;8.10;3.30;;;;;;;;;;5094120;28;20535;-62
2023/05/29 10:05:16;;;;;;;5.80;2.60;;;;;;;;;;5087063;28;20482;-61
2023/05/29 10:07:46;;;;;;;4.97;2.43;;;;;;;;;;5086649;28;20578;-62
2023/05/29 10:10:13;;;;;;;5.43;2.50;;;;;;;;;;5094511;28;20472;-63
2023/05/29 10:12:41;;;;;;;7.40;3.03;;;;;;;;;;5098484;28;20458;-62
2023/05/29 10:15:10;;;;;;;5.77;2.30;;;;;;;;;;5097894;28;20451;-62
2023/05/29 10:17:37;;;;;;;7.03;2.80;;;;;;;;;;5100127;28;20482;-62
2023/05/29 10:20:07;;;;;;;5.17;2.10;;;;;;;;;;5098936;28;20538;-62
2023/05/29 10:22:34;;;;;;;7.30;2.20;;;;;;;;;;5102951;28;20462;-62
2023/05/29 10:25:01;;;;;;;5.87;2.57;;;;;;;;;;5106607;28;21073;-62
2023/05/29 10:27:27;;;;;;;8.47;2.10;;;;;;;;;;5101212;28;20566;-62
2023/05/29 10:29:57;;;;;;;10.80;3.30;;;;;;;;;;5102426;28;20478;-62
2023/05/29 10:32:28;;;;;;;8.77;2.67;;;;;;;;;;5107274;28;20542;-62
2023/05/29 10:34:57;;;;;;;6.90;2.93;;;;;;;;;;5102255;28;20533;-62
2023/05/29 10:37:31;;;;;;;7.40;2.30;;;;;;;;;;5099744;28;20991;-62
2023/05/29 10:40:04;;;;;;;6.17;2.37;;;;;;;;;;5098922;28;20522;-61
2023/05/29 10:42:44;;;;;;;6.40;2.90;;;;;;;;;;5103222;28;20506;-60
2023/05/29 10:45:12;;;;;;;5.70;2.30;;;;;;;;;;5099153;28;20482;-61
2023/05/29 10:47:38;;;;;;;5.77;2.27;;;;;;;;;;5103402;28;20451;-61
2023/05/29 10:50:05;;;;;;;7.37;2.40;;;;;;;;;;5109310;28;21187;-61
2023/05/29 10:52:33;;;;;;;5.30;2.53;;;;;;;;;;5099849;28;20990;-61
2023/05/29 10:55:03;;;;;;;7.70;2.57;;;;;;;;;;5103974;28;20528;-61
2023/05/29 10:57:30;;;;;;;5.23;2.50;;;;;;;;;;5104743;28;20486;-61
2023/05/29 11:00:00;;;;;;;5.67;2.40;;;;;;;;;;5106300;28;20490;-62
2023/05/29 11:02:27;;;;;;;8.97;2.73;;;;;;;;;;5100256;28;20479;-61
2023/05/29 11:05:08;;;;;;;8.47;2.70;;;;;;;;;;5105790;28;20478;-62
2023/05/29 11:07:51;;;;;;;7.70;2.90;;;;;;;;;;5092050;28;20531;-62
2023/05/29 11:10:17;;;;;;;6.30;2.80;;;;;;;;;;5090843;28;20542;-62
2023/05/29 11:13:00;;;;;;;7.43;2.10;;;;;;;;;;5104326;28;20527;-62
2023/05/29 11:15:27;;;;;;;7.20;2.70;;;;;;;;;;5109257;28;20470;-62
2023/05/29 11:17:55;;;;;;;9.63;2.47;;;;;;;;;;5107329;28;20484;-62
2023/05/29 11:20:28;;;;;;;9.20;2.70;;;;;;;;;;5108933;28;20503;-62
2023/05/29 11:23:02;;;;;;;7.13;2.77;;;;;;;;;;5104683;28;20450;-62
2023/05/29 11:25:29;;;;;;;9.43;2.90;;;;;;;;;;5103893;28;20506;-62
2023/05/29 11:27:55;;;;;;;9.83;3.03;;;;;;;;;;5101100;28;20455;-62
2023/05/29 11:30:22;;;;;;;9.33;2.67;;;;;;;;;;5107251;28;20478;-61
2023/05/29 11:32:49;;;;;;;7.60;2.40;;;;;;;;;;5106020;28;20531;-61
2023/05/29 11:35:16;;;;;;;7.20;2.47;;;;;;;;;;5109442;28;20442;-61
2023/05/29 11:37:45;;;;;;;5.33;2.37;;;;;;;;;;5106378;28;20458;-61
2023/05/29 11:40:14;;;;;;;7.03;2.57;;;;;;;;;;5101647;28;20479;-62
2023/05/29 11:42:45;;;;;;;4.30;2.30;;;;;;;;;;5107977;28;20458;-61
2023/05/29 11:45:12;;;;;;;7.17;2.20;;;;;;;;;;5105763;28;20455;-61
2023/05/29 11:47:53;;;;;;;9.37;3.50;;;;;;;;;;5103730;28;20482;-61
2023/05/29 11:50:20;;;;;;;8.13;2.23;;;;;;;;;;5098141;28;20502;-62
2023/05/29 11:52:47;;;;;;;7.13;2.40;;;;;;;;;;5106816;28;20459;-62
2023/05/29 11:55:15;;;;;;;5.57;2.70;;;;;;;;;;5101961;28;20744;-62
2023/05/29 11:57:41;;;;;;;5.07;2.27;;;;;;;;;;5098772;28;20486;-64
2023/05/29 12:00:10;;;;;;;7.30;2.73;;;;;;;;;;5094363;28;20478;-63
2023/05/29 12:02:37;;;;;;;8.93;2.30;;;;;;;;;;5105259;28;21184;-64
2023/05/29 12:05:04;;;;;;;13.50;3.50;;;;;;;;;;5096555;28;20532;-64
2023/05/29 12:07:30;;;;;;;7.03;2.73;;;;;;;;;;5097968;28;20672;-62
2023/05/29 12:09:57;;;;;;;8.50;3.07;;;;;;;;;;5094060;28;20486;-63
2023/05/29 12:12:27;;;;;;;5.57;2.57;;;;;;;;;;5098360;28;20582;-63
2023/05/29 12:14:53;;;;;;;6.23;2.73;;;;;;;;;;5094352;28;20446;-63
2023/05/29 12:17:20;;;;;;;11.13;3.63;;;;;;;;;;5100632;28;20515;-63
2023/05/29 12:19:47;;;;;;;12.67;3.23;;;;;;;;;;5099506;28;21162;-63
2023/05/29 12:22:13;;;;;;;7.10;2.70;;;;;;;;;;5102261;28;20486;-64
2023/05/29 12:24:40;;;;;;;6.70;2.80;;;;;;;;;;5103195;28;20451;-64
2023/05/29 12:27:08;;;;;;;7.50;2.67;;;;;;;;;;5101057;28;21326;-62
2023/05/29 12:29:36;;;;;;;8.97;2.97;;;;;;;;;;5097443;28;20459;-63
2023/05/29 12:32:02;;;;;;;7.23;3.37;;;;;;;;;;5104405;28;20521;-64
2023/05/29 12:34:36;;;;;;;9.60;4.10;;;;;;;;;;5101436;28;20485;-62
2023/05/29 12:37:05;;;;;;;10.90;2.90;;;;;;;;;;5100004;28;20479;-62
2023/05/29 12:39:31;;;;;;;7.93;3.13;;;;;;;;;;5100225;28;20582;-63
2023/05/29 12:41:57;;;;;;;7.87;2.90;;;;;;;;;;5098832;28;20509;-63
2023/05/29 12:44:24;;;;;;;8.60;2.87;;;;;;;;;;5102529;28;20443;-63
2023/05/29 12:46:57;;;;;;;6.10;3.17;;;;;;;;;;5107970;28;20505;-62
2023/05/29 12:49:25;;;;;;;6.50;2.73;;;;;;;;;;5101173;28;20525;-63
2023/05/29 12:51:52;;;;;;;6.37;2.60;;;;;;;;;;5090137;28;20483;-63
2023/05/29 12:54:19;;;;;;;6.73;2.90;;;;;;;;;;5100242;28;20477;-65
2023/05/29 12:56:46;;;;;;;5.50;2.57;;;;;;;;;;5100094;28;20514;-63
2023/05/29 12:59:12;;;;;;;10.20;3.53;;;;;;;;;;5098493;28;21147;-64
2023/05/29 13:01:40;;;;;;;8.40;2.70;;;;;;;;;;5097968;28;20490;-64
2023/05/29 13:04:08;;;;;;;7.43;2.87;;;;;;;;;;5102090;28;20446;-64
2023/05/29 13:06:35;;;;;;;8.90;2.80;;;;;;;;;;5101671;28;20568;-64
2023/05/29 13:09:01;;;;;;;7.97;2.83;;;;;;;;;;5100519;28;20455;-65
2023/05/29 13:11:28;;;;;;;7.53;3.20;;;;;;;;;;5099742;28;20752;-64
2023/05/29 13:13:54;;;;;;;6.90;2.70;;;;;;;;;;5104109;28;20474;-63
2023/05/29 13:16:21;;;;;;;9.37;2.93;;;;;;;;;;5095948;28;20920;-63
2023/05/29 13:18:47;;;;;;;8.63;3.30;;;;;;;;;;5095729;28;20565;-64
2023/05/29 13:21:15;;;;;;;9.50;3.30;;;;;;;;;;5102597;28;20617;-63
2023/05/29 13:23:41;;;;;;;5.00;2.30;;;;;;;;;;5107931;28;20465;-64
2023/05/29 13:26:08;;;;;;;7.77;3.50;;;;;;;;;;5101444;28;20759;-59
2023/05/29 13:28:34;;;;;;;10.37;3.63;;;;;;;;;;5102373;28;20505;-59
2023/05/29 13:31:00;;;;;;;8.47;2.63;;;;;;;;;;5098768;28;20908;-59
2023/05/29 13:33:27;;;;;;;4.30;2.80;;;;;;;;;;5100717;28;20475;-59
2023/05/29 13:35:53;;;;;;;8.90;3.10;;;;;;;;;;5098257;28;20510;-59
2023/05/29 13:38:21;;;;;;;7.37;2.40;;;;;;;;;;5098569;28;20486;-59
2023/05/29 13:40:47;;;;;;;4.13;2.50;;;;;;;;;;5099511;28;20519;-61
2023/05/29 13:43:14;;;;;;;5.30;2.30;;;;;;;;;;5096713;28;20577;-60
2023/05/29 13:45:40;;;;;;;8.33;2.80;;;;;;;;;;5100399;28;20451;-59
2023/05/29 13:48:06;;;;;;;8.17;2.60;;;;;;;;;;5101608;28;20455;-60
2023/05/29 13:50:33;;;;;;;9.57;3.00;;;;;;;;;;5100958;28;20840;-60
2023/05/29 13:52:59;;;;;;;7.40;2.70;;;;;;;;;;5103483;28;20486;-59
2023/05/29 13:55:27;;;;;;;10.73;3.27;;;;;;;;;;5102782;28;20483;-58
2023/05/29 13:57:53;;;;;;;8.97;2.53;;;;;;;;;;5103870;28;20493;-59
2023/05/29 14:00:20;;;;;;;9.17;3.10;;;;;;;;;;5115768;28;20530;-59
2023/05/29 14:02:47;;;;;;;10.13;2.80;;;;;;;;;;5107215;28;20511;-59
2023/05/29 14:05:13;;;;;;;9.60;3.40;;;;;;;;;;5103292;28;21058;-59
2023/05/29 14:07:39;;;;;;;7.80;2.60;;;;;;;;;;5108859;28;20482;-59
2023/05/29 14:10:06;;;;;;;11.60;3.77;;;;;;;;;;5102051;28;20892;-59
2023/05/29 14:12:34;;;;;;;8.00;2.97;;;;;;;;;;5103688;28;21252;-59
2023/05/29 14:15:01;;;;;;;9.20;2.37;;;;;;;;;;5103583;28;20486;-60
2023/05/29 14:17:27;;;;;;;8.90;2.60;;;;;;;;;;5102389;28;20504;-60
2023/05/29 14:19:54;;;;;;;6.07;2.50;;;;;;;;;;5111414;28;20485;-58
2023/05/29 14:22:21;;;;;;;7.93;2.30;;;;;;;;;;5113027;28;20488;-61
2023/05/29 14:24:47;;;;;;;8.00;3.43;;;;;;;;;;5105252;28;20451;-60
2023/05/29 14:27:14;;;;;;;7.60;2.80;;;;;;;;;;5101485;28;20455;-59
2023/05/29 14:29:41;;;;;;;9.20;2.77;;;;;;;;;;5102748;28;20943;-59
2023/05/29 14:32:08;;;;;;;7.70;2.30;;;;;;;;;;5101818;28;20969;-58
2023/05/29 14:34:34;;;;;;;7.10;2.53;;;;;;;;;;5101281;28;20478;-58
2023/05/29 14:37:01;;;;;;;10.00;2.80;;;;;;;;;;5103796;28;20471;-59
2023/05/29 14:39:27;;;;;;;7.47;2.50;;;;;;;;;;5102652;28;20561;-59